createdAt,value
2024-03-02T00:00:57.503Z,8.90
2024-03-02T00:06:33.320Z,8.80
2024-03-02T00:12:09.220Z,8.80
2024-03-02T00:17:46.414Z,8.80
2024-03-02T00:23:24.234Z,8.80
2024-03-02T00:29:03.552Z,8.80
2024-03-02T00:34:40.266Z,8.80
2024-03-02T00:40:17.662Z,8.80
2024-03-02T00:45:53.425Z,8.80
2024-03-02T00:51:32.444Z,8.90
2024-03-02T00:57:08.396Z,8.80
2024-03-02T01:02:44.322Z,8.80
2024-03-02T01:08:21.394Z,8.70
2024-03-02T01:13:57.323Z,8.70
2024-03-02T01:19:33.386Z,8.70
2024-03-02T01:25:10.351Z,8.70
2024-03-02T01:30:46.428Z,8.70
2024-03-02T01:36:22.622Z,8.60
2024-03-02T01:41:59.594Z,8.70
2024-03-02T01:47:35.577Z,8.80
2024-03-02T01:53:11.513Z,8.60
2024-03-02T01:58:48.697Z,8.70
2024-03-02T02:04:24.519Z,8.60
2024-03-02T02:10:00.596Z,8.60
2024-03-02T02:15:38.532Z,8.50
2024-03-02T02:21:14.512Z,8.40
2024-03-02T02:26:51.551Z,8.40
2024-03-02T02:32:27.558Z,8.50
2024-03-02T02:38:04.647Z,8.50
2024-03-02T02:43:41.528Z,8.50
2024-03-02T02:49:17.591Z,8.60
2024-03-02T02:54:53.588Z,8.50
2024-03-02T03:00:30.665Z,8.50
2024-03-02T03:06:06.619Z,8.40
2024-03-02T03:11:42.654Z,8.40
2024-03-02T03:17:19.653Z,8.50
2024-03-02T03:22:55.607Z,8.50
2024-03-02T03:28:31.630Z,8.50
2024-03-02T03:34:08.703Z,8.50
2024-03-02T03:39:44.679Z,8.40
2024-03-02T03:45:26.759Z,8.40
2024-03-02T03:51:03.679Z,8.60
2024-03-02T03:56:39.758Z,8.60
2024-03-02T04:02:15.742Z,8.40
2024-03-02T04:07:52.851Z,8.40
2024-03-02T04:13:28.770Z,8.40
2024-03-02T04:19:04.739Z,8.30
2024-03-02T04:24:41.787Z,8.30
2024-03-02T04:30:18.831Z,8.40
2024-03-02T04:35:54.796Z,8.40
2024-03-02T04:41:32.756Z,8.30
2024-03-02T04:47:08.819Z,8.10
2024-03-02T04:52:44.880Z,7.90
2024-03-02T04:58:21.798Z,7.90
2024-03-02T05:03:57.919Z,7.90
2024-03-02T05:09:33.883Z,7.80
2024-03-02T05:15:11.917Z,7.80
2024-03-02T05:20:47.896Z,7.80
2024-03-02T05:26:23.829Z,7.80
2024-03-02T05:32:00.892Z,7.70
2024-03-02T05:37:36.861Z,7.80
2024-03-02T05:43:12.988Z,7.90
2024-03-02T05:48:49.952Z,7.80
2024-03-02T05:54:25.959Z,7.70
2024-03-02T06:00:01.951Z,7.80
2024-03-02T06:05:43.080Z,7.80
2024-03-02T06:11:18.957Z,8.00
2024-03-02T06:16:54.945Z,8.00
2024-03-02T06:22:32.038Z,7.80
2024-03-02T06:28:08.101Z,7.90
2024-03-02T06:33:44.075Z,8.00
2024-03-02T06:39:21.067Z,8.20
2024-03-02T06:44:56.984Z,8.20
2024-03-02T06:50:33.002Z,8.30
2024-03-02T06:56:11.088Z,8.40
2024-03-02T07:01:47.061Z,8.40
2024-03-02T07:07:23.044Z,8.20
2024-03-02T07:13:00.319Z,8.10
2024-03-02T07:18:36.125Z,8.00
2024-03-02T07:24:12.066Z,8.10
2024-03-02T07:29:49.085Z,8.30
2024-03-02T07:35:25.171Z,8.40
2024-03-02T07:41:01.131Z,8.20
2024-03-02T07:46:38.129Z,8.20
2024-03-02T07:52:14.147Z,8.40
2024-03-02T07:57:50.164Z,8.60
2024-03-02T08:03:27.205Z,8.60
2024-03-02T08:09:04.194Z,8.60
2024-03-02T08:14:40.238Z,8.40
2024-03-02T08:20:18.197Z,8.60
2024-03-02T08:25:54.202Z,8.60
2024-03-02T08:31:30.319Z,8.60
2024-03-02T08:37:08.275Z,8.60
2024-03-02T08:42:44.282Z,8.60
2024-03-02T08:48:20.493Z,8.70
2024-03-02T08:53:57.267Z,8.80
2024-03-02T08:59:33.322Z,8.90
2024-03-02T09:05:09.380Z,9.10
2024-03-02T09:10:46.354Z,9.10
2024-03-02T09:16:22.363Z,9.20
2024-03-02T09:21:58.360Z,9.10
2024-03-02T09:27:35.490Z,9.30
2024-03-02T09:38:51.349Z,9.40
2024-03-02T09:44:28.372Z,9.50
2024-03-02T09:50:04.455Z,9.40
2024-03-02T09:55:40.534Z,9.60
2024-03-02T10:01:18.487Z,9.60
2024-03-02T10:06:54.513Z,9.60
2024-03-02T10:12:30.516Z,9.60
2024-03-02T10:18:07.493Z,9.80
2024-03-02T10:23:43.514Z,9.90
2024-03-02T10:29:19.455Z,9.80
2024-03-02T10:34:58.493Z,10.00
2024-03-02T10:40:34.697Z,9.90
2024-03-02T10:46:10.640Z,10.20
2024-03-02T10:51:47.599Z,10.20
2024-03-02T10:57:28.804Z,10.40
2024-03-02T11:03:06.652Z,10.50
2024-03-02T11:08:47.563Z,10.60
2024-03-02T11:14:27.653Z,10.50
2024-03-02T11:20:03.637Z,10.60
2024-03-02T11:25:40.653Z,10.70
2024-03-02T11:31:16.786Z,10.60
2024-03-02T11:36:52.656Z,10.50
2024-03-02T11:42:29.692Z,10.60
2024-03-02T11:48:05.641Z,10.50
2024-03-02T11:53:42.644Z,10.40
2024-03-02T11:59:20.658Z,10.40
2024-03-02T12:04:57.836Z,10.60
2024-03-02T12:10:33.653Z,10.70
2024-03-02T12:16:11.972Z,10.70
2024-03-02T12:21:47.930Z,10.80
2024-03-02T12:27:24.896Z,10.90
2024-03-02T12:33:02.787Z,10.70
2024-03-02T12:38:38.735Z,10.50
2024-03-02T12:44:14.950Z,10.60
2024-03-02T12:49:51.905Z,10.60
2024-03-02T12:55:28.744Z,10.80
2024-03-02T13:01:13.919Z,11.00
2024-03-02T13:06:50.773Z,10.90
2024-03-02T13:12:28.127Z,11.10
2024-03-02T13:18:06.874Z,11.10
2024-03-02T13:23:44.861Z,11.00
2024-03-02T13:29:20.870Z,10.90
2024-03-02T13:34:56.846Z,10.90
2024-03-02T13:40:33.960Z,10.70
2024-03-02T13:46:09.886Z,10.70
2024-03-02T13:51:45.884Z,10.70
2024-03-02T13:57:25.423Z,10.60
2024-03-02T14:03:02.947Z,10.70
2024-03-02T14:08:38.933Z,10.80
2024-03-02T14:14:15.926Z,10.80
2024-03-02T14:19:58.046Z,10.80
2024-03-02T14:25:33.913Z,10.70
2024-03-02T14:31:11.177Z,10.60
2024-03-02T14:36:47.058Z,10.70
2024-03-02T14:42:23.186Z,10.60
2024-03-02T14:48:00.077Z,10.60
2024-03-02T14:53:36.052Z,10.60
2024-03-02T14:59:12.014Z,10.40
2024-03-02T15:04:49.077Z,10.40
2024-03-02T15:10:25.089Z,10.20
2024-03-02T15:16:01.279Z,10.30
2024-03-02T15:21:38.140Z,10.40
2024-03-02T15:27:14.152Z,10.40
2024-03-02T15:32:50.128Z,10.30
2024-03-02T15:38:33.379Z,10.20
2024-03-02T15:44:11.421Z,10.10
2024-03-02T15:49:47.493Z,10.00
2024-03-02T15:55:24.180Z,10.00
2024-03-02T16:01:00.257Z,10.00
2024-03-02T16:06:36.193Z,10.00
2024-03-02T16:12:14.174Z,10.10
2024-03-02T16:17:50.310Z,10.10
2024-03-02T16:23:26.249Z,9.90
2024-03-02T16:29:03.189Z,9.80
2024-03-02T16:34:39.472Z,9.80
2024-03-02T16:40:16.223Z,9.90
2024-03-02T16:51:29.278Z,9.90
2024-03-02T16:57:05.248Z,9.80
2024-03-02T17:02:42.226Z,9.80
2024-03-02T17:08:19.313Z,9.80
2024-03-02T17:13:55.310Z,9.80
2024-03-02T17:19:32.291Z,9.70
2024-03-02T17:25:08.351Z,9.80
2024-03-02T17:30:58.487Z,9.80
2024-03-02T17:36:35.358Z,9.60
2024-03-02T17:42:11.603Z,9.50
2024-03-02T17:47:47.409Z,9.60
2024-03-02T17:53:25.683Z,9.50
2024-03-02T17:59:01.366Z,9.50
2024-03-02T18:04:37.549Z,9.50
2024-03-02T18:10:15.459Z,9.60
2024-03-02T18:15:51.873Z,9.70
2024-03-02T18:21:27.761Z,9.60
2024-03-02T18:27:04.569Z,9.50
2024-03-02T18:32:40.476Z,9.50
2024-03-02T18:38:16.503Z,9.40
2024-03-02T18:43:57.464Z,9.30
2024-03-02T18:49:33.540Z,9.30
2024-03-02T18:55:09.865Z,9.30
2024-03-02T19:00:46.592Z,9.30
2024-03-02T19:06:22.517Z,9.30
2024-03-02T19:11:58.549Z,9.30
2024-03-02T19:17:35.551Z,9.30
2024-03-02T19:23:14.859Z,9.30
2024-03-02T19:28:54.565Z,9.20
2024-03-02T19:34:31.614Z,9.20
2024-03-02T19:40:07.674Z,9.10
2024-03-02T19:45:43.662Z,9.10
2024-03-02T19:51:20.611Z,9.10
2024-03-02T19:56:56.889Z,9.00
2024-03-02T20:02:32.670Z,8.90
2024-03-02T20:08:09.695Z,8.90
2024-03-02T20:13:45.652Z,8.80
2024-03-02T20:19:21.643Z,8.70
2024-03-02T20:24:58.777Z,8.60
2024-03-02T20:30:34.927Z,8.70
2024-03-02T20:36:10.699Z,8.60
2024-03-02T20:41:47.762Z,8.60
2024-03-02T20:47:24.120Z,8.50
2024-03-02T20:52:59.740Z,8.60
2024-03-02T20:58:36.874Z,8.60
2024-03-02T21:04:12.803Z,8.60
2024-03-02T21:09:48.789Z,8.50
2024-03-02T21:15:26.749Z,8.50
2024-03-02T21:21:02.845Z,8.50
2024-03-02T21:26:38.949Z,8.40
2024-03-02T21:32:15.814Z,8.50
2024-03-02T21:37:51.770Z,8.40
2024-03-02T21:43:27.888Z,8.30
2024-03-02T21:49:04.884Z,8.20
2024-03-02T21:54:40.913Z,8.20
2024-03-02T22:00:16.884Z,8.30
2024-03-02T22:05:53.978Z,8.30
2024-03-02T22:11:29.984Z,8.40
2024-03-02T22:17:05.889Z,8.50
2024-03-02T22:22:43.053Z,8.50
2024-03-02T22:28:18.976Z,8.50
2024-03-02T22:33:54.906Z,8.50
2024-03-02T22:39:31.989Z,8.50
2024-03-02T22:51:30.026Z,8.40
2024-03-02T22:57:07.027Z,8.40
2024-03-02T23:02:43.003Z,8.40
2024-03-02T23:08:18.974Z,8.30
2024-03-02T23:13:55.972Z,8.40
2024-03-02T23:19:32.099Z,8.50
2024-03-02T23:25:08.170Z,8.60
2024-03-02T23:30:45.057Z,8.60
2024-03-02T23:36:21.085Z,8.60
2024-03-02T23:41:57.065Z,8.50
2024-03-02T23:54:37.158Z,8.60
